Time;durP1;ratioP1;P1;durP2;ratioP2;P2;SDS_P1;SDS_P2;PMS_P1;PMS_P2;Temp;Humidity;BMP_temperature;BMP_pressure;BME280_temperature;BME280_humidity;BME280_pressure;Samples;Min_cycle;Max_cycle;Signal;HPM_P1;HPM_P2
2022/01/23 00:02:14;;;;;;;8.63;5.03;;;;;;;-0.59;100.00;101386.13;15295221;19;20235;-54
2022/01/23 00:07:19;;;;;;;9.40;5.10;;;;;;;-0.57;100.00;101387.88;15289897;19;20137;-53
2022/01/23 00:12:26;;;;;;;8.93;4.83;;;;;;;-0.58;100.00;101383.50;15290819;19;20890;-53
2022/01/23 00:17:33;;;;;;;7.50;4.63;;;;;;;-0.59;100.00;101389.63;15291660;19;20283;-53
2022/01/23 00:22:42;;;;;;;9.33;5.10;;;;;;;-0.59;100.00;101381.75;15291030;19;20501;-53
2022/01/23 00:33:06;;;;;;;8.93;5.17;;;;;;;-0.60;100.00;101380.00;15289678;19;20157;-52
2022/01/23 00:38:11;;;;;;;7.47;4.57;;;;;;;-0.60;100.00;101377.38;15288456;19;20164;-52
2022/01/23 00:43:25;;;;;;;8.60;5.40;;;;;;;-0.60;100.00;101374.75;15288608;19;20168;-53
2022/01/23 00:48:35;;;;;;;9.03;5.00;;;;;;;-0.62;100.00;101381.78;15284891;19;20152;-53
2022/01/23 00:53:39;;;;;;;9.47;5.43;;;;;;;-0.61;100.00;101378.28;15286793;19;20141;-53
2022/01/23 00:58:44;;;;;;;8.90;5.07;;;;;;;-0.64;100.00;101364.31;15287942;19;20494;-54
2022/01/23 01:03:50;;;;;;;8.10;5.37;;;;;;;-0.66;100.00;101368.66;15285913;19;20292;-52
2022/01/23 01:09:01;;;;;;;10.20;4.90;;;;;;;-0.69;100.00;101366.91;15283479;19;20212;-53
2022/01/23 01:14:24;;;;;;;11.27;5.53;;;;;;;-0.70;100.00;101378.28;15287128;19;20147;-54
2022/01/23 01:30:24;;;;;;;9.30;5.27;;;;;;;-0.70;100.00;101387.88;15286458;19;20132;-51
2022/01/23 01:35:34;;;;;;;7.37;4.63;;;;;;;-0.71;100.00;101397.50;15284044;19;20630;-55
2022/01/23 01:40:41;;;;;;;9.93;5.27;;;;;;;-0.72;100.00;101396.63;15284268;19;20247;-52
2022/01/23 01:45:46;;;;;;;12.03;5.30;;;;;;;-0.69;100.00;101407.97;15282628;19;20141;-53
2022/01/23 01:50:55;;;;;;;9.97;4.80;;;;;;;-0.70;100.00;101404.47;15283671;19;20278;-53
2022/01/23 01:56:00;;;;;;;12.33;5.40;;;;;;;-0.69;100.00;101406.22;15284257;19;20145;-52
2022/01/23 02:02:38;;;;;;;8.90;5.00;;;;;;;-0.68;100.00;101392.25;15281692;19;20530;-54
2022/01/23 02:12:15;;;;;;;6.47;4.30;;;;;;;-0.72;100.00;101395.75;15281935;19;20128;-53
2022/01/23 02:17:51;;;;;;;8.50;4.77;;;;;;;-0.76;100.00;101392.28;15281516;19;20607;-52
2022/01/23 02:23:21;;;;;;;7.13;4.47;;;;;;;-0.79;100.00;101391.41;15280925;19;20514;-52
2022/01/23 02:55:14;;;;;;;8.33;5.43;;;;;;;-0.66;100.00;101415.84;15294912;19;20136;-52
2022/01/23 03:00:20;;;;;;;8.83;4.60;;;;;;;-0.65;100.00;101423.72;15294716;19;20504;-52
2022/01/23 03:05:40;;;;;;;9.97;4.77;;;;;;;-0.68;100.00;101418.47;15274393;19;20245;-50
2022/01/23 03:10:58;;;;;;;9.20;4.93;;;;;;;-0.62;100.00;101428.97;15297396;19;20143;-50
2022/01/23 03:26:59;;;;;;;9.63;4.80;;;;;;;-0.62;100.00;101464.78;15294068;19;20133;-50
2022/01/23 03:32:19;;;;;;;9.23;4.83;;;;;;;-0.62;100.00;101459.53;15301256;19;20144;-49
2022/01/23 03:37:23;;;;;;;7.47;4.40;;;;;;;-0.62;100.00;101470.91;15297367;19;20145;-51
2022/01/23 03:42:29;;;;;;;9.10;5.00;;;;;;;-0.61;100.00;101490.13;15292622;19;20180;-51
2022/01/23 03:47:39;;;;;;;10.53;4.57;;;;;;;-0.63;100.00;101478.78;15289989;19;20516;-50
2022/01/23 03:52:44;;;;;;;7.10;4.13;;;;;;;-0.64;100.00;101487.50;15291638;19;20257;-50
2022/01/23 03:57:49;;;;;;;5.63;3.73;;;;;;;-0.66;100.00;101490.13;15292789;19;20145;-50
2022/01/23 04:02:53;;;;;;;12.53;4.77;;;;;;;-0.70;100.00;101492.72;15293578;19;20141;-50
2022/01/23 04:08:04;;;;;;;8.77;4.47;;;;;;;-0.76;100.00;101501.47;15288937;19;20197;-51
2022/01/23 04:13:17;;;;;;;9.63;5.00;;;;;;;-0.83;100.00;101508.44;15293136;19;20144;-51
2022/01/23 04:34:32;;;;;;;5.50;3.90;;;;;;;-0.75;100.00;101526.81;15289925;19;20483;-51
2022/01/23 05:00:54;;;;;;;5.03;3.73;;;;;;;-0.70;100.00;101516.31;15287845;19;20148;-51
2022/01/23 05:06:05;;;;;;;6.73;3.70;;;;;;;-0.68;100.00;101533.78;15280095;19;20535;-49
2022/01/23 05:11:29;;;;;;;7.20;3.70;;;;;;;-0.65;100.00;101531.19;15293997;19;20161;-51
2022/01/23 05:16:45;;;;;;;4.33;3.17;;;;;;;-0.63;100.00;101553.03;15286342;19;20169;-51
2022/01/23 05:22:07;;;;;;;5.97;4.03;;;;;;;-0.64;100.00;101555.66;15285755;19;20710;-50
2022/01/23 05:27:12;;;;;;;20.20;13.80;;;;;;;-0.66;100.00;101563.50;15285941;19;20625;-50
2022/01/23 05:32:17;;;;;;;10.43;6.07;;;;;;;-0.64;100.00;101564.38;15288055;19;20151;-51
2022/01/23 05:37:21;;;;;;;6.93;4.57;;;;;;;-0.64;100.00;101572.25;15286765;19;20141;-49
2022/01/23 05:42:26;;;;;;;7.27;4.13;;;;;;;-0.63;100.00;101568.75;15285499;19;20145;-51
2022/01/23 05:47:30;;;;;;;5.47;3.87;;;;;;;-0.62;100.00;101574.88;15282230;19;20546;-51
2022/01/23 05:52:41;;;;;;;8.33;4.50;;;;;;;-0.64;100.00;101574.00;15283452;19;20713;-50
2022/01/23 05:58:04;;;;;;;9.10;4.10;;;;;;;-0.65;100.00;101578.38;15285966;19;20216;-51
2022/01/23 06:03:24;;;;;;;5.87;3.57;;;;;;;-0.64;100.00;101587.09;15283874;19;20147;-49
2022/01/23 06:08:38;;;;;;;8.67;4.20;;;;;;;-0.66;100.00;101591.47;15280853;19;20217;-50
2022/01/23 06:13:43;;;;;;;6.00;3.87;;;;;;;-0.63;100.00;101594.09;15276882;19;20191;-51
2022/01/23 06:18:50;;;;;;;8.87;4.10;;;;;;;-0.65;100.00;101591.47;15293287;19;20212;-50
2022/01/23 06:24:26;;;;;;;6.00;4.00;;;;;;;-0.61;100.00;101603.72;15301395;19;20638;-50
2022/01/23 06:29:48;;;;;;;4.87;3.67;;;;;;;-0.58;100.00;101613.31;15305490;19;20262;-50
2022/01/23 06:34:52;;;;;;;7.00;4.43;;;;;;;-0.64;100.00;101608.94;15305778;19;20905;-50
2022/01/23 06:39:57;;;;;;;8.83;4.50;;;;;;;-0.55;100.00;101629.94;15305987;19;20575;-50
2022/01/23 06:45:22;;;;;;;4.73;3.43;;;;;;;-0.53;100.00;101633.44;15303554;19;20219;-50
2022/01/23 06:50:27;;;;;;;8.20;3.50;;;;;;;-0.46;100.00;101652.66;15296581;19;20764;-51
2022/01/23 06:55:32;;;;;;;7.73;4.53;;;;;;;-0.40;100.00;101655.31;15305238;19;20153;-51
2022/01/23 07:00:37;;;;;;;8.10;4.87;;;;;;;-0.36;100.00;101665.81;15297156;19;20163;-51
2022/01/23 07:06:00;;;;;;;13.73;9.17;;;;;;;-0.28;100.00;101680.69;15297582;19;20150;-50
2022/01/23 07:11:22;;;;;;;11.83;7.20;;;;;;;-0.24;100.00;101688.56;15297506;19;20474;-50
2022/01/23 07:16:41;;;;;;;22.03;10.50;;;;;;;-0.18;100.00;101698.19;15299948;19;20189;-51
2022/01/23 07:21:49;;;;;;;14.03;6.50;;;;;;;-0.18;100.00;101708.69;15298928;19;20228;-51
2022/01/23 07:26:54;;;;;;;12.57;6.53;;;;;;;-0.12;100.00;101703.47;15289374;19;20176;-51
2022/01/23 07:32:06;;;;;;;12.67;6.20;;;;;;;-0.06;100.00;101708.72;15292097;19;20567;-50
2022/01/23 07:37:12;;;;;;;11.23;6.73;;;;;;;-0.01;100.00;101718.34;15293298;19;20546;-50
2022/01/23 07:42:20;;;;;;;13.87;6.97;;;;;;;0.03;100.00;101724.47;15295257;19;20141;-49
2022/01/23 07:47:44;;;;;;;14.13;8.13;;;;;;;0.08;100.00;101737.59;15299373;19;20512;-50
2022/01/23 07:53:14;;;;;;;10.63;5.03;;;;;;;0.11;100.00;101748.97;15293054;19;20311;-50
2022/01/23 07:58:58;;;;;;;8.27;5.63;;;;;;;0.27;100.00;101748.09;15286095;19;20179;-50
2022/01/23 08:04:15;;;;;;;7.27;5.60;;;;;;;0.44;100.00;101766.50;15290576;19;20273;-49
2022/01/23 08:09:20;;;;;;;8.60;4.77;;;;;;;0.52;100.00;101784.88;15290203;19;20180;-51
2022/01/23 08:14:24;;;;;;;6.33;4.67;;;;;;;0.61;100.00;101787.50;15296390;19;20169;-51
2022/01/23 08:19:28;;;;;;;5.97;4.53;;;;;;;0.72;100.00;101785.78;15295382;19;20161;-50
2022/01/23 08:24:33;;;;;;;5.30;4.40;;;;;;;0.81;100.00;101783.13;15290939;19;20181;-51
2022/01/23 08:29:37;;;;;;;4.20;3.80;;;;;;;0.88;100.00;101792.75;15267978;19;20157;-51
2022/01/23 08:34:42;;;;;;;8.57;5.30;;;;;;;0.85;100.00;101800.63;15274364;19;20559;-51
2022/01/23 08:39:47;;;;;;;6.43;3.97;;;;;;;0.88;100.00;101813.78;15281227;19;20177;-49
2022/01/23 08:44:53;;;;;;;5.57;3.60;;;;;;;1.00;100.00;101824.28;15267036;19;20180;-51
2022/01/23 08:49:58;;;;;;;8.93;4.87;;;;;;;1.05;100.00;101833.03;15276390;19;20188;-51
2022/01/23 08:55:02;;;;;;;8.70;5.13;;;;;;;1.15;100.00;101838.28;15267763;19;20185;-51
2022/01/23 09:00:08;;;;;;;6.23;4.10;;;;;;;1.14;100.00;101847.91;15271979;19;20137;-50
2022/01/23 09:05:13;;;;;;;6.87;4.80;;;;;;;1.13;100.00;101853.19;15274845;19;20182;-50
2022/01/23 09:10:24;;;;;;;6.67;3.77;;;;;;;1.29;100.00;101862.81;15268556;19;20173;-51
2022/01/23 09:15:30;;;;;;;5.30;3.27;;;;;;;1.29;100.00;101868.06;15277985;19;20154;-51
2022/01/23 09:20:35;;;;;;;5.13;3.20;;;;;;;1.23;100.00;101868.06;15273789;19;20273;-49
2022/01/23 09:25:39;;;;;;;3.63;2.80;;;;;;;1.22;100.00;101871.56;15281985;19;20153;-49
2022/01/23 09:30:48;;;;;;;3.20;2.83;;;;;;;1.35;100.00;101862.78;15266598;19;20175;-50
2022/01/23 09:35:53;;;;;;;4.00;3.00;;;;;;;1.52;100.00;101878.53;15271700;19;20624;-51
2022/01/23 09:41:00;;;;;;;4.70;3.40;;;;;;;1.66;100.00;101882.03;15269236;19;20153;-50
2022/01/23 09:46:06;;;;;;;4.70;3.00;;;;;;;1.90;100.00;101878.44;15266639;19;20158;-50
2022/01/23 09:51:10;;;;;;;3.40;3.00;;;;;;;1.80;100.00;101870.56;15261189;19;20187;-50
2022/01/23 09:56:17;;;;;;;5.30;3.00;;;;;;;1.52;100.00;101862.75;15266725;19;20633;-50
2022/01/23 10:01:22;;;;;;;3.40;3.10;;;;;;;1.36;100.00;101875.94;15268049;19;20675;-50
2022/01/23 10:06:30;;;;;;;3.53;2.90;;;;;;;1.33;100.00;101867.16;15266973;19;20652;-49
2022/01/23 10:11:39;;;;;;;2.90;2.30;;;;;;;1.41;100.00;101860.16;15271828;19;20183;-49
2022/01/23 10:16:44;;;;;;;2.67;2.30;;;;;;;1.45;100.00;101853.97;15282112;19;20256;-49
2022/01/23 10:21:48;;;;;;;2.47;2.20;;;;;;;1.45;100.00;101864.50;15283441;19;20162;-50
2022/01/23 10:26:58;;;;;;;2.57;2.37;;;;;;;1.41;100.00;101873.31;15276567;19;20226;-50
2022/01/23 10:32:19;;;;;;;3.30;2.70;;;;;;;1.52;100.00;101866.25;15286258;19;20154;-51
2022/01/23 10:37:41;;;;;;;2.87;2.20;;;;;;;1.28;100.00;101872.44;15291247;19;20229;-50
2022/01/23 10:42:56;;;;;;;3.30;2.43;;;;;;;1.12;100.00;101868.06;15287652;19;20157;-50
2022/01/23 10:48:12;;;;;;;4.67;2.87;;;;;;;1.08;100.00;101869.84;15285848;19;20624;-51
2022/01/23 10:53:17;;;;;;;3.50;2.50;;;;;;;1.06;100.00;101868.97;15288265;19;20166;-50
2022/01/23 10:58:26;;;;;;;4.50;3.07;;;;;;;1.07;100.00;101873.34;15286882;19;20963;-50
2022/01/23 11:03:30;;;;;;;3.23;2.60;;;;;;;1.17;100.00;101873.34;15288170;19;20185;-50
2022/01/23 11:08:35;;;;;;;2.93;2.63;;;;;;;1.23;100.00;101866.31;15290678;19;20170;-51
2022/01/23 11:18:59;;;;;;;3.20;2.33;;;;;;;1.09;100.00;101874.19;15297421;19;20149;-49
2022/01/23 11:24:04;;;;;;;4.23;3.03;;;;;;;1.00;100.00;101884.72;15301426;19;20160;-50
2022/01/23 11:29:35;;;;;;;4.27;2.97;;;;;;;1.02;100.00;101880.34;15292371;19;20134;-50
2022/01/23 11:34:40;;;;;;;3.57;2.50;;;;;;;1.00;100.00;101884.72;15295453;19;20241;-49
2022/01/23 11:39:49;;;;;;;2.87;2.47;;;;;;;1.08;100.00;101890.88;15297471;19;20269;-50
2022/01/23 11:51:06;;;;;;;3.63;2.60;;;;;;;1.42;100.00;101901.38;15294733;19;20779;-50
2022/01/23 11:56:30;;;;;;;4.70;3.33;;;;;;;1.45;100.00;101902.22;15293046;19;20149;-50
2022/01/23 12:01:39;;;;;;;4.00;2.90;;;;;;;1.44;100.00;101907.50;15298526;19;20174;-50
2022/01/23 12:06:45;;;;;;;3.20;2.90;;;;;;;1.29;100.00;101899.63;15290143;19;20526;-50
2022/01/23 12:12:33;;;;;;;3.97;2.50;;;;;;;1.13;100.00;101897.88;15292500;19;20140;-50
2022/01/23 12:17:43;;;;;;;3.77;2.83;;;;;;;1.13;100.00;101889.97;15299169;19;20149;-50
2022/01/23 12:22:56;;;;;;;3.97;3.10;;;;;;;1.15;100.00;101896.13;15285449;19;20167;-50
2022/01/23 12:28:28;;;;;;;3.33;3.03;;;;;;;1.20;100.00;101902.28;15269401;19;20161;-51
2022/01/23 12:33:46;;;;;;;3.23;2.90;;;;;;;1.31;100.00;101918.91;15270670;19;20158;-50
2022/01/23 12:38:53;;;;;;;4.03;2.83;;;;;;;1.43;100.00;101929.41;15278782;19;20158;-52
2022/01/23 12:44:05;;;;;;;3.50;3.03;;;;;;;1.53;100.00;101941.69;15268485;19;20166;-51
2022/01/23 12:49:29;;;;;;;5.50;3.80;;;;;;;1.43;100.00;101950.47;15267600;19;20183;-50
2022/01/23 12:54:44;;;;;;;5.23;3.43;;;;;;;1.25;100.00;101955.72;15272745;19;20224;-49
2022/01/23 12:59:58;;;;;;;3.60;3.07;;;;;;;1.14;100.00;101955.72;15276641;19;20161;-50
2022/01/23 13:05:02;;;;;;;3.80;3.20;;;;;;;1.13;100.00;101960.97;15285606;19;20174;-50
2022/01/23 13:10:30;;;;;;;4.70;3.17;;;;;;;1.11;100.00;101965.34;15281213;19;20235;-49
2022/01/23 13:16:00;;;;;;;4.23;3.10;;;;;;;1.11;100.00;101983.75;15295974;19;20157;-49
2022/01/23 13:31:52;;;;;;;5.63;3.27;;;;;;;1.07;100.00;101989.03;15285927;19;20525;-52
2022/01/23 13:37:08;;;;;;;5.20;4.07;;;;;;;1.01;100.00;101988.13;15293529;19;20158;-50
2022/01/23 13:42:47;;;;;;;6.80;4.40;;;;;;;0.97;100.00;101987.22;15287570;19;20209;-50
2022/01/23 13:53:38;;;;;;;5.03;4.47;;;;;;;1.52;100.00;101992.53;15285982;19;20415;-50
2022/01/23 13:58:52;;;;;;;3.30;2.70;;;;;;;1.03;100.00;101997.78;15283425;19;20241;-50
2022/01/23 14:03:57;;;;;;;8.93;5.17;;;;;;;0.86;100.00;101999.47;15284870;19;20613;-50
2022/01/23 14:09:06;;;;;;;6.67;4.63;;;;;;;0.72;100.00;102001.22;15284112;19;20193;-50
2022/01/23 14:14:38;;;;;;;5.87;4.10;;;;;;;0.62;100.00;101997.66;15287022;19;20549;-51
2022/01/23 14:19:43;;;;;;;5.93;4.13;;;;;;;0.49;100.00;101998.47;15283526;19;20153;-49
2022/01/23 14:24:47;;;;;;;5.33;3.67;;;;;;;0.26;100.00;102010.63;15287927;19;20609;-50
2022/01/23 14:29:55;;;;;;;6.63;4.27;;;;;;;0.11;100.00;102011.47;15284794;19;20702;-50
2022/01/23 14:35:13;;;;;;;4.90;3.60;;;;;;;-0.13;100.00;102021.81;15289854;19;20140;-49
2022/01/23 14:40:25;;;;;;;5.13;3.00;;;;;;;-0.36;100.00;102030.34;15288396;19;20618;-49
2022/01/23 14:45:32;;;;;;;5.03;4.17;;;;;;;-0.50;100.00;102032.00;15296900;19;20141;-51
2022/01/23 14:50:44;;;;;;;7.37;5.43;;;;;;;-0.55;100.00;102032.84;15292138;19;20208;-51
2022/01/23 14:55:58;;;;;;;7.00;5.10;;;;;;;-0.72;100.00;102027.44;15296131;19;20149;-53
2022/01/23 15:01:03;;;;;;;7.60;5.23;;;;;;;-0.95;100.00;102031.56;15296608;19;20266;-50
2022/01/23 15:06:11;;;;;;;9.87;5.90;;;;;;;-1.15;100.00;102029.63;15290611;19;20200;-51
2022/01/23 15:11:16;;;;;;;27.13;14.33;;;;;;;-1.33;100.00;102024.19;15295749;19;20623;-51
2022/01/23 15:16:21;;;;;;;24.53;13.73;;;;;;;-1.25;100.00;102046.09;15302396;19;20144;-52
2022/01/23 15:21:26;;;;;;;13.97;8.50;;;;;;;-1.52;100.00;102037.91;15302255;19;20153;-51
2022/01/23 15:26:33;;;;;;;12.60;7.33;;;;;;;-1.86;100.00;102047.94;15302323;19;20144;-51
2022/01/23 15:31:40;;;;;;;10.80;6.60;;;;;;;-2.05;100.00;102045.03;15296369;19;20161;-52
2022/01/23 15:36:45;;;;;;;16.27;9.83;;;;;;;-2.18;100.00;102049.22;15294586;19;20181;-52
2022/01/23 15:41:49;;;;;;;18.73;11.33;;;;;;;-2.27;100.00;102051.66;15299221;19;20607;-51
2022/01/23 15:46:54;;;;;;;16.77;10.93;;;;;;;-2.41;100.00;102058.41;15299848;19;20149;-52
2022/01/23 15:51:59;;;;;;;19.83;10.63;;;;;;;-2.53;100.00;102062.56;15295332;19;20133;-51
2022/01/23 15:57:05;;;;;;;31.97;16.47;;;;;;;-2.68;100.00;102062.31;15277483;19;20203;-51
2022/01/23 16:02:12;;;;;;;37.63;17.90;;;;;;;-2.86;100.00;102067.19;15246473;19;20170;-54
2022/01/23 16:07:18;;;;;;;47.90;20.67;;;;;;;-3.06;100.00;102073.78;15272045;19;20188;-50
2022/01/23 16:12:24;;;;;;;50.00;20.77;;;;;;;-3.20;100.00;102080.47;15267257;19;20180;-50
2022/01/23 16:17:41;;;;;;;58.80;23.90;;;;;;;-3.30;100.00;102095.06;15269868;19;20159;-50
2022/01/23 16:22:47;;;;;;;60.67;26.53;;;;;;;-3.40;100.00;102087.91;15249737;19;21068;-50
2022/01/23 16:27:52;;;;;;;55.80;24.80;;;;;;;-3.53;100.00;102096.31;15263230;19;20178;-51
2022/01/23 16:32:58;;;;;;;45.67;20.90;;;;;;;-3.66;100.00;102100.38;15272803;19;20173;-51
2022/01/23 16:38:03;;;;;;;45.47;22.63;;;;;;;-3.79;100.00;102108.78;15272195;19;20184;-50
2022/01/23 16:48:02;;;;;;;35.50;19.90;;;;;;;-3.80;100.00;102117.44;15158189;19;2930908;-53
2022/01/23 16:53:07;;;;;;;31.40;17.63;;;;;;;-3.82;100.00;102119.13;15327494;19;20645;-52
2022/01/23 16:58:12;;;;;;;28.10;16.90;;;;;;;-3.85;100.00;102129.50;15329131;19;20148;-51
2022/01/23 17:03:17;;;;;;;34.57;18.23;;;;;;;-3.87;100.00;102131.22;15316720;19;20183;-52
2022/01/23 17:08:22;;;;;;;30.80;16.80;;;;;;;-3.96;100.00;102149.22;15305142;19;20163;-53
2022/01/23 17:13:27;;;;;;;31.80;17.80;;;;;;;-4.00;100.00;102159.59;15316213;19;20163;-54
2022/01/23 17:18:32;;;;;;;37.90;20.90;;;;;;;-4.01;100.00;102155.22;15320480;19;20140;-55
2022/01/23 17:23:37;;;;;;;44.07;21.37;;;;;;;-3.95;100.00;102154.47;15319147;19;20194;-52
2022/01/23 17:28:42;;;;;;;42.50;21.27;;;;;;;-4.04;100.00;102162.97;15315949;19;20199;-55
2022/01/23 17:33:46;;;;;;;59.90;39.47;;;;;;;-3.76;100.00;102171.47;15298244;19;20397;-51
2022/01/23 17:38:51;;;;;;;48.97;26.57;;;;;;;-4.01;100.00;102173.47;15325615;19;20786;-52
2022/01/23 17:43:56;;;;;;;47.30;23.93;;;;;;;-4.13;100.00;102173.16;15317150;19;20586;-53
2022/01/23 17:49:08;;;;;;;76.70;32.80;;;;;;;-4.26;100.00;102170.22;15328927;19;20257;-52
2022/01/23 17:54:13;;;;;;;72.13;34.10;;;;;;;-4.39;100.00;102161.19;15299356;19;20160;-53
2022/01/23 17:59:18;;;;;;;92.33;36.63;;;;;;;-4.50;100.00;102154.81;15262390;19;20734;-53
2022/01/23 18:04:23;;;;;;;52.40;25.83;;;;;;;-4.65;100.00;102151.81;15280385;19;20148;-54
2022/01/23 18:09:27;;;;;;;68.03;28.80;;;;;;;-4.75;100.00;102156.75;15280679;19;20602;-53
2022/01/23 18:14:38;;;;;;;44.77;22.17;;;;;;;-4.84;100.00;102156.53;15256296;19;20558;-54
2022/01/23 18:19:43;;;;;;;57.63;23.60;;;;;;;-4.92;100.00;102171.03;15260876;19;20473;-52
2022/01/23 18:24:48;;;;;;;43.20;22.07;;;;;;;-4.96;100.00;102176.13;15277557;19;20151;-53
2022/01/23 18:29:52;;;;;;;41.07;20.40;;;;;;;-5.02;100.00;102166.41;15275572;19;20166;-56
2022/01/23 18:34:58;;;;;;;41.67;21.63;;;;;;;-5.01;100.00;102162.97;15256701;19;20186;-57
2022/01/23 18:40:08;;;;;;;45.13;22.50;;;;;;;-5.11;100.00;102160.94;15240181;19;20259;-56
2022/01/23 18:45:32;;;;;;;39.33;22.87;;;;;;;-5.06;100.00;102182.75;15262808;19;20252;-54
2022/01/23 18:50:57;;;;;;;38.80;22.00;;;;;;;-4.94;100.00;102205.66;15259548;19;20167;-54
2022/01/23 18:56:04;;;;;;;43.20;21.60;;;;;;;-5.02;100.00;102202.84;15261800;19;20183;-55
2022/01/23 19:01:14;;;;;;;37.60;19.73;;;;;;;-5.17;100.00;102199.78;15231494;19;20165;-58
2022/01/23 19:06:32;;;;;;;42.00;21.30;;;;;;;-5.17;100.00;102213.69;15249239;19;20557;-55
2022/01/23 19:11:38;;;;;;;45.13;23.30;;;;;;;-5.20;100.00;102210.13;15265181;19;20156;-55
2022/01/23 19:16:42;;;;;;;53.67;25.03;;;;;;;-5.25;100.00;102240.31;15264445;19;20164;-55
2022/01/23 19:21:47;;;;;;;65.03;29.50;;;;;;;-5.21;100.00;102236.97;15246192;19;20160;-54
2022/01/23 19:26:53;;;;;;;60.57;28.97;;;;;;;-5.22;100.00;102230.88;15244565;19;21925;-55
2022/01/23 19:31:58;;;;;;;65.17;30.43;;;;;;;-5.22;100.00;102236.09;15240180;19;20157;-55
2022/01/23 19:37:04;;;;;;;67.63;32.13;;;;;;;-5.21;100.00;102227.47;15257345;19;20710;-55
2022/01/23 19:42:17;;;;;;;66.93;32.03;;;;;;;-5.21;100.00;102244.78;15245949;19;20138;-56
2022/01/23 19:47:28;;;;;;;64.77;31.50;;;;;;;-5.35;100.00;102235.66;15225638;19;20180;-55
2022/01/23 19:52:33;;;;;;;80.93;39.43;;;;;;;-5.24;100.00;102244.69;15251201;19;20156;-56
2022/01/23 19:57:38;;;;;;;79.83;36.80;;;;;;;-5.25;100.00;102224.69;15260599;19;20153;-56
2022/01/23 20:02:42;;;;;;;74.87;32.87;;;;;;;-5.27;100.00;102237.66;15255863;19;20181;-55
2022/01/23 20:07:51;;;;;;;65.00;32.00;;;;;;;-5.32;100.00;102226.25;15238490;19;20248;-56
2022/01/23 20:13:00;;;;;;;61.13;29.83;;;;;;;-5.43;100.00;102224.16;15242508;19;20522;-55
2022/01/23 20:18:05;;;;;;;65.10;32.50;;;;;;;-5.48;100.00;102237.88;15266040;19;20157;-53
2022/01/23 20:23:11;;;;;;;83.30;43.53;;;;;;;-5.52;100.00;102251.63;15270385;19;20144;-54
2022/01/23 20:28:16;;;;;;;71.37;35.97;;;;;;;-5.56;100.00;102267.97;15253047;19;20245;-54
2022/01/23 20:33:21;;;;;;;134.50;44.53;;;;;;;-5.56;100.00;102273.19;15243468;19;20805;-54
2022/01/23 20:38:25;;;;;;;175.87;47.77;;;;;;;-5.53;100.00;102281.06;15228887;19;20156;-55
2022/01/23 20:43:30;;;;;;;281.37;63.13;;;;;;;-5.69;100.00;102272.72;15270610;19;20164;-50
2022/01/23 20:48:35;;;;;;;176.37;50.63;;;;;;;-5.69;100.00;102288.34;15261721;19;20168;-53
2022/01/23 20:53:51;;;;;;;104.60;41.47;;;;;;;-5.75;100.00;102309.78;15235729;19;20157;-53
2022/01/23 20:58:57;;;;;;;79.90;38.27;;;;;;;-5.75;100.00;102315.00;15258269;19;20571;-53
2022/01/23 21:04:02;;;;;;;93.03;42.97;;;;;;;-5.76;100.00;102313.22;15267109;19;20141;-53
2022/01/23 21:09:08;;;;;;;111.87;46.77;;;;;;;-5.77;100.00;102314.06;15263261;19;20702;-52
2022/01/23 21:14:17;;;;;;;88.13;40.07;;;;;;;-5.83;100.00;102326.84;15246070;19;20312;-53
2022/01/23 21:40:52;;;;;;;65.07;29.53;;;;;;;-6.14;100.00;102339.63;15257340;19;20232;-52
2022/01/23 21:45:57;;;;;;;67.47;30.87;;;;;;;-6.19;100.00;102340.38;15282650;19;20561;-53
2022/01/23 21:51:02;;;;;;;64.83;32.10;;;;;;;-6.22;100.00;102342.84;15285583;19;20149;-53
2022/01/23 21:56:09;;;;;;;71.07;32.33;;;;;;;-6.24;100.00;102347.09;15282565;19;20217;-54
2022/01/23 22:01:14;;;;;;;75.87;35.10;;;;;;;-6.15;100.00;102322.25;15255589;19;20147;-53
2022/01/23 22:06:19;;;;;;;78.57;35.60;;;;;;;-6.15;100.00;102335.25;15272412;19;20277;-53
2022/01/23 22:11:31;;;;;;;65.30;35.07;;;;;;;-6.20;100.00;102336.00;15285156;19;20171;-52
2022/01/23 22:16:35;;;;;;;70.57;33.43;;;;;;;-6.20;100.00;102335.09;15284322;19;20133;-54
2022/01/23 22:21:53;;;;;;;61.47;32.47;;;;;;;-6.20;100.00;102324.72;15258627;19;20148;-53
2022/01/23 22:26:57;;;;;;;53.00;27.97;;;;;;;-6.25;100.00;102331.44;15261900;19;20172;-53
2022/01/23 22:32:02;;;;;;;52.50;27.40;;;;;;;-6.26;100.00;102346.16;15280961;19;20156;-54
2022/01/23 22:37:07;;;;;;;58.17;29.20;;;;;;;-6.19;100.00;102339.47;15278405;19;20155;-54
2022/01/23 22:42:11;;;;;;;48.73;26.33;;;;;;;-6.07;100.00;102329.53;15267577;19;20161;-55
2022/01/23 22:47:16;;;;;;;60.53;29.00;;;;;;;-5.86;100.00;102325.03;15246644;19;20219;-51
2022/01/23 22:52:20;;;;;;;59.97;28.00;;;;;;;-5.63;100.00;102325.81;15274713;19;20633;-53
2022/01/23 22:57:26;;;;;;;47.13;24.87;;;;;;;-5.49;100.00;102314.16;15281574;19;20152;-51
2022/01/23 23:02:30;;;;;;;45.23;23.13;;;;;;;-5.39;100.00;102309.25;15278960;19;20205;-51
2022/01/23 23:07:35;;;;;;;51.37;25.87;;;;;;;-5.27;100.00;102299.22;15246120;19;20168;-52
2022/01/23 23:12:39;;;;;;;59.00;27.97;;;;;;;-5.13;100.00;102318.78;15261961;19;20614;-51
2022/01/23 23:17:44;;;;;;;88.03;32.30;;;;;;;-4.99;100.00;102327.91;15276899;19;20157;-52
2022/01/23 23:22:48;;;;;;;198.67;48.17;;;;;;;-4.84;100.00;102343.13;15276541;19;20153;-54
2022/01/23 23:27:53;;;;;;;235.53;55.33;;;;;;;-4.71;100.00;102342.66;15255968;19;20145;-52
2022/01/23 23:32:57;;;;;;;128.97;42.43;;;;;;;-4.65;100.00;102335.00;15250725;19;20156;-53
2022/01/23 23:38:02;;;;;;;183.40;49.33;;;;;;;-4.59;100.00;102334.31;15276493;19;20301;-51
2022/01/23 23:43:17;;;;;;;171.07;51.90;;;;;;;-4.54;100.00;102332.72;15276515;19;20141;-52
2022/01/23 23:48:22;;;;;;;108.37;42.97;;;;;;;-4.49;100.00;102331.16;15268515;19;20448;-52
2022/01/23 23:53:31;;;;;;;68.97;34.07;;;;;;;-4.41;100.00;102335.72;15241423;19;20144;-53
2022/01/23 23:58:35;;;;;;;60.47;29.47;;;;;;;-4.33;100.00;102342.88;15265988;19;20156;-52
